Terminal Aerodrome Forecast
Issued by NWS

Home | Current Version | Previous Version | Text Only | Print | Product List | Glossary On
Versions: 1 2 3 4 5 6 7 8 9 10 11 12
356
FTUS45 KFGZ 010528
TAFPGA
TAF
KPGA 010528Z 0106/0206 VRB05KT P6SM SCT110
     FM011900 VRB06KT P6SM SCT080 BKN120 PROB30 0121/0202 VRB10G25KT
      6SM -TSRA BKN060CB=

USA.gov is the U.S. government's official web portal to all federal, state and local government web resources and services.